Time;durP1;ratioP1;P1;durP2;ratioP2;P2;SDS_P1;SDS_P2;PMS_P1;PMS_P2;Temp;Humidity;BMP_temperature;BMP_pressure;BME280_temperature;BME280_humidity;BME280_pressure;Samples;Min_cycle;Max_cycle;Signal;HPM_P1;HPM_P2
2021/07/25 00:01:30;;;;;;;9.27;7.18;;;;;;;;;;4990710;28;20183;-56
2021/07/25 00:03:55;;;;;;;8.33;7.20;;;;;;;;;;4987931;28;20196;-56
2021/07/25 00:06:20;;;;;;;10.13;7.30;;;;;;;;;;4990011;28;20946;-56
2021/07/25 00:08:45;;;;;;;9.38;7.18;;;;;;;;;;4989311;28;20443;-55
2021/07/25 00:11:13;;;;;;;9.27;6.95;;;;;;;;;;4988133;28;20196;-56
2021/07/25 00:13:40;;;;;;;8.93;7.03;;;;;;;;;;4989768;28;20307;-56
2021/07/25 00:16:08;;;;;;;8.60;7.25;;;;;;;;;;4982229;28;20223;-56
2021/07/25 00:18:34;;;;;;;9.98;6.70;;;;;;;;;;4975398;28;20208;-56
2021/07/25 00:20:59;;;;;;;10.07;7.50;;;;;;;;;;4974624;28;20586;-56
2021/07/25 00:23:26;;;;;;;15.10;8.63;;;;;;;;;;4979461;28;20274;-55
2021/07/25 00:25:52;;;;;;;10.60;7.55;;;;;;;;;;4989610;28;20180;-56
2021/07/25 00:28:19;;;;;;;11.07;7.07;;;;;;;;;;4985383;28;20660;-56
2021/07/25 00:30:45;;;;;;;11.57;7.28;;;;;;;;;;4987476;28;20278;-56
2021/07/25 00:33:10;;;;;;;13.50;7.47;;;;;;;;;;4975082;28;20295;-56
2021/07/25 00:35:35;;;;;;;11.65;7.55;;;;;;;;;;4991386;28;20638;-56
2021/07/25 00:38:00;;;;;;;9.68;7.32;;;;;;;;;;4987386;28;20270;-56
2021/07/25 00:40:29;;;;;;;12.67;7.13;;;;;;;;;;4986867;28;20200;-56
2021/07/25 00:42:54;;;;;;;10.20;6.65;;;;;;;;;;4979558;28;20929;-56
2021/07/25 00:45:19;;;;;;;16.08;7.13;;;;;;;;;;4984533;28;20192;-57
2021/07/25 00:47:45;;;;;;;10.48;7.78;;;;;;;;;;4989729;28;20199;-55
2021/07/25 00:50:10;;;;;;;15.27;8.10;;;;;;;;;;4979272;28;20813;-56
2021/07/25 00:52:36;;;;;;;14.18;8.05;;;;;;;;;;4982969;28;20184;-56
2021/07/25 00:55:01;;;;;;;12.40;8.10;;;;;;;;;;4987707;28;20192;-57
2021/07/25 00:57:26;;;;;;;14.00;8.50;;;;;;;;;;4991472;28;20200;-56
2021/07/25 00:59:52;;;;;;;12.40;8.47;;;;;;;;;;4989101;28;20187;-56
2021/07/25 01:02:17;;;;;;;11.90;8.30;;;;;;;;;;4985899;28;20557;-56
2021/07/25 01:04:49;;;;;;;10.20;7.90;;;;;;;;;;4984027;28;20212;-56
2021/07/25 01:07:23;;;;;;;13.23;7.57;;;;;;;;;;4989049;28;20181;-56
2021/07/25 01:09:53;;;;;;;15.13;7.75;;;;;;;;;;4985197;28;20183;-56
2021/07/25 01:12:28;;;;;;;9.50;7.20;;;;;;;;;;4970299;28;20189;-56
2021/07/25 01:14:55;;;;;;;11.90;6.78;;;;;;;;;;4989028;28;20216;-56
2021/07/25 01:17:27;;;;;;;10.35;7.57;;;;;;;;;;4989388;28;20676;-55
2021/07/25 01:19:53;;;;;;;16.02;7.47;;;;;;;;;;4989325;28;20207;-56
2021/07/25 01:22:18;;;;;;;14.65;7.30;;;;;;;;;;4988679;28;20993;-56
2021/07/25 01:24:44;;;;;;;12.05;7.30;;;;;;;;;;4989480;28;20676;-56
2021/07/25 01:27:17;;;;;;;15.48;7.57;;;;;;;;;;4988753;28;20270;-56
2021/07/25 01:29:42;;;;;;;9.73;7.15;;;;;;;;;;4986076;28;21021;-58
2021/07/25 01:32:08;;;;;;;13.15;6.95;;;;;;;;;;4987932;28;20191;-56
2021/07/25 01:34:34;;;;;;;9.95;7.65;;;;;;;;;;4982358;28;20200;-56
2021/07/25 01:37:00;;;;;;;7.75;6.63;;;;;;;;;;4989273;28;20751;-56
2021/07/25 01:39:28;;;;;;;14.85;6.85;;;;;;;;;;4985822;28;20270;-56
2021/07/25 01:41:53;;;;;;;10.52;6.75;;;;;;;;;;4987802;28;20235;-56
2021/07/25 01:44:19;;;;;;;10.85;7.07;;;;;;;;;;4985972;28;20219;-56
2021/07/25 01:46:44;;;;;;;8.77;6.97;;;;;;;;;;4975898;28;20210;-56
2021/07/25 01:49:09;;;;;;;15.83;7.73;;;;;;;;;;4988720;28;20188;-56
2021/07/25 01:51:34;;;;;;;8.43;7.00;;;;;;;;;;4986909;28;20427;-55
2021/07/25 01:53:59;;;;;;;8.15;6.90;;;;;;;;;;4984059;28;20465;-56
2021/07/25 01:56:25;;;;;;;11.85;7.35;;;;;;;;;;4989425;28;20792;-55
2021/07/25 01:58:50;;;;;;;13.53;7.20;;;;;;;;;;4989844;28;20192;-56
2021/07/25 02:01:15;;;;;;;11.88;7.80;;;;;;;;;;4988229;28;21437;-56
2021/07/25 02:03:40;;;;;;;9.45;7.25;;;;;;;;;;4986518;28;20583;-56
2021/07/25 02:06:05;;;;;;;11.52;7.32;;;;;;;;;;4989783;28;20204;-56
2021/07/25 02:08:30;;;;;;;11.35;7.43;;;;;;;;;;4985856;28;20419;-56
2021/07/25 02:10:56;;;;;;;12.05;7.63;;;;;;;;;;4988736;28;20215;-55
2021/07/25 02:13:22;;;;;;;10.75;7.00;;;;;;;;;;4984297;28;20574;-56
2021/07/25 02:15:47;;;;;;;12.90;6.60;;;;;;;;;;4970377;28;20311;-55
2021/07/25 02:18:12;;;;;;;12.82;7.00;;;;;;;;;;4987327;28;20226;-56
2021/07/25 02:20:38;;;;;;;10.55;7.07;;;;;;;;;;4984699;28;20180;-56
2021/07/25 02:23:03;;;;;;;11.20;7.47;;;;;;;;;;4986860;28;20183;-56
2021/07/25 02:25:29;;;;;;;10.87;7.57;;;;;;;;;;4984916;28;20221;-56
2021/07/25 02:27:54;;;;;;;14.90;7.30;;;;;;;;;;4984752;28;20423;-56
2021/07/25 02:30:19;;;;;;;10.03;5.97;;;;;;;;;;4972238;28;20323;-55
2021/07/25 02:32:44;;;;;;;10.95;6.32;;;;;;;;;;4987012;28;20442;-56
2021/07/25 02:35:10;;;;;;;14.00;6.68;;;;;;;;;;4986667;28;20220;-56
2021/07/25 02:37:35;;;;;;;20.45;7.07;;;;;;;;;;4987584;28;20200;-56
2021/07/25 02:40:00;;;;;;;9.60;7.07;;;;;;;;;;4967920;28;20313;-56
2021/07/25 02:42:26;;;;;;;24.50;7.70;;;;;;;;;;4977705;28;20197;-55
2021/07/25 02:44:51;;;;;;;14.60;7.10;;;;;;;;;;4989037;28;20576;-55
2021/07/25 02:47:16;;;;;;;18.40;7.90;;;;;;;;;;4987054;28;20192;-55
2021/07/25 02:49:41;;;;;;;12.32;7.07;;;;;;;;;;4982078;28;20219;-55
2021/07/25 02:52:07;;;;;;;12.48;8.07;;;;;;;;;;4986271;28;20845;-56
2021/07/25 02:54:32;;;;;;;10.88;7.40;;;;;;;;;;4986197;28;20204;-55
2021/07/25 02:56:57;;;;;;;9.20;6.50;;;;;;;;;;4989126;28;20204;-56
2021/07/25 02:59:22;;;;;;;12.95;6.68;;;;;;;;;;4985851;28;20192;-56
2021/07/25 03:01:50;;;;;;;18.20;6.40;;;;;;;;;;4987837;28;20278;-56
2021/07/25 03:04:15;;;;;;;20.42;6.05;;;;;;;;;;4984936;28;20444;-56
2021/07/25 03:06:40;;;;;;;13.87;6.93;;;;;;;;;;4981607;28;20194;-57
2021/07/25 03:09:05;;;;;;;13.48;6.07;;;;;;;;;;4968961;28;20434;-56
2021/07/25 03:11:30;;;;;;;23.08;5.70;;;;;;;;;;4987043;28;20187;-56
2021/07/25 03:13:56;;;;;;;29.95;6.05;;;;;;;;;;5018972;23;20225;-73
2021/07/25 03:16:21;;;;;;;27.80;7.27;;;;;;;;;;5009235;28;20183;-73
2021/07/25 03:18:46;;;;;;;22.33;8.00;;;;;;;;;;5025426;28;20434;-73
2021/07/25 03:21:11;;;;;;;14.38;8.57;;;;;;;;;;5024322;28;20233;-73
2021/07/25 03:23:36;;;;;;;17.25;9.40;;;;;;;;;;5026309;28;20440;-73
2021/07/25 03:26:02;;;;;;;13.50;8.27;;;;;;;;;;5026338;28;20564;-73
2021/07/25 03:28:27;;;;;;;12.18;9.45;;;;;;;;;;5025991;28;20347;-73
2021/07/25 03:30:52;;;;;;;19.95;6.88;;;;;;;;;;5027218;28;20206;-73
2021/07/25 03:33:18;;;;;;;12.13;6.78;;;;;;;;;;5012976;28;20187;-73
2021/07/25 03:35:43;;;;;;;16.95;6.90;;;;;;;;;;5015725;28;20286;-73
2021/07/25 03:38:09;;;;;;;15.63;7.15;;;;;;;;;;5020911;28;20210;-73
2021/07/25 03:40:34;;;;;;;16.02;6.93;;;;;;;;;;4997410;28;20206;-73
2021/07/25 03:42:59;;;;;;;34.58;7.38;;;;;;;;;;5027930;28;20185;-73
2021/07/25 03:45:24;;;;;;;23.55;7.40;;;;;;;;;;5028919;28;20470;-73
2021/07/25 03:47:50;;;;;;;16.35;7.55;;;;;;;;;;5012506;28;20188;-73
2021/07/25 03:50:15;;;;;;;19.55;6.93;;;;;;;;;;5017318;28;20896;-73
2021/07/25 03:52:40;;;;;;;23.02;6.78;;;;;;;;;;5019350;28;20183;-73
2021/07/25 03:55:06;;;;;;;21.75;6.88;;;;;;;;;;5017151;28;20197;-73
2021/07/25 03:57:32;;;;;;;32.35;7.60;;;;;;;;;;5025793;28;20744;-73
2021/07/25 03:59:58;;;;;;;29.17;6.72;;;;;;;;;;5027850;28;20199;-73
2021/07/25 04:02:23;;;;;;;16.27;6.57;;;;;;;;;;5018802;28;20217;-72
2021/07/25 04:04:48;;;;;;;28.23;7.13;;;;;;;;;;5030757;28;20674;-72
2021/07/25 04:07:13;;;;;;;32.25;7.93;;;;;;;;;;5008997;28;20222;-73
2021/07/25 04:09:39;;;;;;;30.15;6.93;;;;;;;;;;5025452;28;20191;-72
2021/07/25 04:12:04;;;;;;;49.53;7.75;;;;;;;;;;5022154;28;20186;-72
2021/07/25 04:14:29;;;;;;;60.92;7.63;;;;;;;;;;5031118;28;20278;-73
2021/07/25 04:16:54;;;;;;;37.23;7.20;;;;;;;;;;5031496;28;20234;-72
2021/07/25 04:19:19;;;;;;;27.92;7.88;;;;;;;;;;5030524;28;20417;-72
2021/07/25 04:21:44;;;;;;;23.98;7.07;;;;;;;;;;5029392;28;20866;-73
2021/07/25 04:24:10;;;;;;;29.10;8.60;;;;;;;;;;5028097;28;20421;-73
2021/07/25 04:26:35;;;;;;;22.57;7.57;;;;;;;;;;5028543;28;20449;-73
2021/07/25 04:29:00;;;;;;;31.92;7.93;;;;;;;;;;5032434;28;20434;-72
2021/07/25 04:31:25;;;;;;;36.88;8.13;;;;;;;;;;5029751;28;20674;-72
2021/07/25 04:33:53;;;;;;;31.42;7.72;;;;;;;;;;5024061;28;20270;-72
2021/07/25 04:36:29;;;;;;;44.63;8.30;;;;;;;;;;5029497;28;20228;-72
2021/07/25 04:38:54;;;;;;;30.05;8.85;;;;;;;;;;5026376;28;20691;-72
2021/07/25 04:41:20;;;;;;;19.60;9.45;;;;;;;;;;5027173;28;20207;-73
2021/07/25 04:43:46;;;;;;;31.48;8.35;;;;;;;;;;5035108;28;20179;-71
2021/07/25 04:46:31;;;;;;;21.60;9.90;;;;;;;;;;5029253;28;20183;-72
2021/07/25 04:49:07;;;;;;;21.75;9.48;;;;;;;;;;5033271;28;20194;-73
2021/07/25 04:51:35;;;;;;;22.30;9.75;;;;;;;;;;5029113;28;20766;-73
2021/07/25 04:54:05;;;;;;;19.13;8.10;;;;;;;;;;5015500;28;20237;-73
2021/07/25 04:56:32;;;;;;;21.05;9.50;;;;;;;;;;5023053;28;20167;-72
2021/07/25 04:59:01;;;;;;;18.90;9.38;;;;;;;;;;5027992;28;20643;-73
2021/07/25 05:01:28;;;;;;;26.10;8.30;;;;;;;;;;5028061;28;20234;-74
2021/07/25 05:03:54;;;;;;;20.45;8.80;;;;;;;;;;5009807;28;20179;-73
2021/07/25 05:06:21;;;;;;;44.75;9.10;;;;;;;;;;5037132;28;20200;-73
2021/07/25 05:08:47;;;;;;;45.10;8.85;;;;;;;;;;5029383;28;20174;-73
2021/07/25 05:11:16;;;;;;;33.92;8.32;;;;;;;;;;5029826;28;20835;-73
2021/07/25 05:13:43;;;;;;;38.75;8.80;;;;;;;;;;5029063;28;20643;-73
2021/07/25 05:16:09;;;;;;;35.08;8.95;;;;;;;;;;5029656;28;20221;-73
2021/07/25 05:18:43;;;;;;;22.35;8.85;;;;;;;;;;5027507;28;20708;-73
2021/07/25 05:21:22;;;;;;;22.67;9.60;;;;;;;;;;5021899;28;20205;-73
2021/07/25 05:23:52;;;;;;;25.15;9.32;;;;;;;;;;5018172;28;20179;-73
2021/07/25 05:26:21;;;;;;;24.45;9.18;;;;;;;;;;5021718;28;20183;-73
2021/07/25 05:28:47;;;;;;;20.80;9.40;;;;;;;;;;5026083;28;20240;-73
2021/07/25 05:31:13;;;;;;;37.67;10.82;;;;;;;;;;5027492;28;20207;-73
2021/07/25 05:33:38;;;;;;;33.80;10.35;;;;;;;;;;5029106;28;20170;-73
2021/07/25 05:36:04;;;;;;;26.48;10.52;;;;;;;;;;5029391;28;20193;-72
2021/07/25 05:38:29;;;;;;;33.92;10.65;;;;;;;;;;5029438;28;20202;-73
2021/07/25 05:40:54;;;;;;;23.10;10.90;;;;;;;;;;5025170;28;20214;-73
2021/07/25 05:43:19;;;;;;;24.70;10.80;;;;;;;;;;5028012;28;20457;-73
2021/07/25 05:45:44;;;;;;;25.45;10.45;;;;;;;;;;5029537;28;20440;-73
2021/07/25 05:48:10;;;;;;;22.85;11.00;;;;;;;;;;5029924;28;20187;-73
2021/07/25 05:50:35;;;;;;;27.40;11.03;;;;;;;;;;5037962;28;20206;-73
2021/07/25 05:53:00;;;;;;;24.65;12.07;;;;;;;;;;5029129;28;20438;-72
2021/07/25 05:55:27;;;;;;;21.80;11.93;;;;;;;;;;5030447;28;20188;-72
2021/07/25 05:57:52;;;;;;;22.52;11.55;;;;;;;;;;5024609;28;20214;-72
2021/07/25 06:00:17;;;;;;;24.35;12.85;;;;;;;;;;5027463;28;21028;-72
2021/07/25 06:02:49;;;;;;;24.55;13.27;;;;;;;;;;5025228;28;20188;-72
2021/07/25 06:05:14;;;;;;;20.70;11.45;;;;;;;;;;5028089;28;20181;-72
2021/07/25 06:07:39;;;;;;;20.58;12.32;;;;;;;;;;5033026;28;20732;-72
2021/07/25 06:10:04;;;;;;;19.90;11.73;;;;;;;;;;5025004;28;20207;-72
2021/07/25 06:12:30;;;;;;;22.05;12.55;;;;;;;;;;5021557;28;20801;-72
2021/07/25 06:14:55;;;;;;;18.33;12.77;;;;;;;;;;5027777;28;20230;-72
2021/07/25 06:17:20;;;;;;;19.15;12.70;;;;;;;;;;5014346;28;20464;-72
2021/07/25 06:19:45;;;;;;;20.27;12.60;;;;;;;;;;5030951;28;21110;-72
2021/07/25 06:22:10;;;;;;;14.98;10.75;;;;;;;;;;5027651;28;20433;-72
2021/07/25 06:24:35;;;;;;;16.85;10.93;;;;;;;;;;5011770;28;20769;-72
2021/07/25 06:27:01;;;;;;;15.43;10.88;;;;;;;;;;5025769;28;20432;-72
2021/07/25 06:29:26;;;;;;;16.30;11.10;;;;;;;;;;5033259;28;20194;-72
2021/07/25 06:31:51;;;;;;;14.57;10.40;;;;;;;;;;5024945;28;20552;-72
2021/07/25 06:34:16;;;;;;;16.33;10.95;;;;;;;;;;5013065;28;20422;-72
2021/07/25 06:36:41;;;;;;;14.85;10.63;;;;;;;;;;5025345;28;20221;-72
2021/07/25 06:39:07;;;;;;;14.57;11.10;;;;;;;;;;5030298;28;20526;-72
2021/07/25 06:41:32;;;;;;;15.52;10.57;;;;;;;;;;5034801;28;20464;-72
2021/07/25 06:43:57;;;;;;;11.40;9.80;;;;;;;;;;5028821;28;20741;-72
2021/07/25 06:46:22;;;;;;;15.10;9.80;;;;;;;;;;5026043;28;20482;-72
2021/07/25 06:48:47;;;;;;;10.57;9.47;;;;;;;;;;5024733;28;20421;-72
2021/07/25 06:51:13;;;;;;;11.23;8.13;;;;;;;;;;5021347;28;20793;-72
2021/07/25 06:53:40;;;;;;;9.70;8.70;;;;;;;;;;5014653;28;20413;-72
2021/07/25 06:56:06;;;;;;;10.43;9.07;;;;;;;;;;5026380;28;20587;-72
2021/07/25 06:58:32;;;;;;;12.85;10.40;;;;;;;;;;5031305;28;20210;-73
2021/07/25 07:00:57;;;;;;;11.80;9.60;;;;;;;;;;5010009;28;20260;-73
2021/07/25 07:03:22;;;;;;;9.98;8.95;;;;;;;;;;5011673;28;20772;-71
2021/07/25 07:05:48;;;;;;;9.07;8.13;;;;;;;;;;5019345;28;20186;-73
2021/07/25 07:08:13;;;;;;;12.35;9.48;;;;;;;;;;5026318;28;20981;-72
2021/07/25 07:10:39;;;;;;;10.98;9.93;;;;;;;;;;5025662;28;20862;-72
2021/07/25 07:13:09;;;;;;;10.32;8.88;;;;;;;;;;5026521;28;20262;-72
2021/07/25 07:15:35;;;;;;;11.60;8.80;;;;;;;;;;5012367;28;20186;-72
2021/07/25 07:18:01;;;;;;;11.38;9.30;;;;;;;;;;5027981;28;20700;-73
2021/07/25 07:20:26;;;;;;;10.43;9.27;;;;;;;;;;5014528;28;20207;-72
2021/07/25 07:22:53;;;;;;;8.77;7.88;;;;;;;;;;5016623;28;20215;-73
2021/07/25 07:25:18;;;;;;;10.93;8.02;;;;;;;;;;5021759;28;20190;-72
2021/07/25 07:27:43;;;;;;;9.48;8.45;;;;;;;;;;5022349;28;20567;-73
2021/07/25 07:30:08;;;;;;;8.95;8.00;;;;;;;;;;5025655;28;20214;-72
2021/07/25 07:32:33;;;;;;;9.15;8.20;;;;;;;;;;5011498;28;20502;-73
2021/07/25 07:34:59;;;;;;;8.60;7.73;;;;;;;;;;5010625;28;20182;-73
2021/07/25 07:37:24;;;;;;;11.98;7.68;;;;;;;;;;5024799;28;20519;-71
2021/07/25 07:39:49;;;;;;;8.83;7.70;;;;;;;;;;5008576;28;20210;-72
2021/07/25 07:42:14;;;;;;;8.23;7.30;;;;;;;;;;5028631;28;20178;-72
2021/07/25 07:44:40;;;;;;;9.17;8.00;;;;;;;;;;5030952;28;20203;-72
2021/07/25 07:47:05;;;;;;;9.82;7.90;;;;;;;;;;5028947;28;20431;-73
2021/07/25 07:49:30;;;;;;;9.85;9.05;;;;;;;;;;5032222;28;20221;-73
2021/07/25 07:51:56;;;;;;;10.67;9.77;;;;;;;;;;5023019;28;20181;-73
2021/07/25 07:54:21;;;;;;;10.90;10.00;;;;;;;;;;5027385;28;20920;-73
2021/07/25 07:56:46;;;;;;;10.32;9.52;;;;;;;;;;5027494;28;20241;-73
2021/07/25 07:59:11;;;;;;;11.90;10.67;;;;;;;;;;5032725;28;20316;-76
2021/07/25 08:01:37;;;;;;;11.03;10.10;;;;;;;;;;5032709;28;20699;-75
2021/07/25 08:04:02;;;;;;;11.20;10.30;;;;;;;;;;5031185;28;20182;-74
2021/07/25 08:06:27;;;;;;;9.97;9.23;;;;;;;;;;5031153;28;20185;-74
2021/07/25 08:08:52;;;;;;;9.97;8.93;;;;;;;;;;5030280;28;20215;-74
2021/07/25 08:11:17;;;;;;;10.27;9.47;;;;;;;;;;5030419;28;20197;-75
2021/07/25 08:13:45;;;;;;;10.00;9.10;;;;;;;;;;5034840;28;20182;-75
2021/07/25 08:16:11;;;;;;;9.80;9.00;;;;;;;;;;5024349;28;20739;-74
2021/07/25 08:18:36;;;;;;;11.93;10.85;;;;;;;;;;5025645;28;20210;-73
2021/07/25 08:21:02;;;;;;;10.85;9.95;;;;;;;;;;5027960;28;20285;-73
2021/07/25 08:23:27;;;;;;;11.13;10.23;;;;;;;;;;5033477;28;20268;-73
2021/07/25 08:25:52;;;;;;;10.77;9.73;;;;;;;;;;5028649;28;20193;-73
2021/07/25 08:28:18;;;;;;;11.27;10.23;;;;;;;;;;5027031;28;20194;-73
2021/07/25 08:30:43;;;;;;;12.30;10.43;;;;;;;;;;5036025;28;20213;-73
2021/07/25 08:33:08;;;;;;;12.37;11.17;;;;;;;;;;5026189;28;20267;-73
2021/07/25 08:35:33;;;;;;;11.57;10.67;;;;;;;;;;5018032;28;20186;-73
2021/07/25 08:37:58;;;;;;;12.57;11.37;;;;;;;;;;5023625;28;20228;-72
2021/07/25 08:40:24;;;;;;;12.50;11.30;;;;;;;;;;5034898;22;20225;-56
2021/07/25 08:43:04;;;;;;;12.27;11.25;;;;;;;;;;5008166;28;20980;-56
2021/07/25 08:45:30;;;;;;;12.60;11.50;;;;;;;;;;4988658;28;20202;-55
2021/07/25 08:48:00;;;;;;;12.65;11.55;;;;;;;;;;4989741;28;20279;-56
2021/07/25 08:50:27;;;;;;;12.05;11.02;;;;;;;;;;4988909;28;20199;-56
2021/07/25 08:52:54;;;;;;;12.35;11.23;;;;;;;;;;4989628;28;20275;-56
2021/07/25 08:55:20;;;;;;;12.07;10.88;;;;;;;;;;4988707;28;20290;-59
2021/07/25 08:57:46;;;;;;;11.95;10.82;;;;;;;;;;4989946;28;20857;-57
2021/07/25 09:00:13;;;;;;;11.93;10.93;;;;;;;;;;5003950;28;20183;-57
2021/07/25 09:02:39;;;;;;;12.50;11.05;;;;;;;;;;4989836;28;20180;-57
2021/07/25 09:05:04;;;;;;;10.40;9.13;;;;;;;;;;4984237;28;20203;-57
2021/07/25 09:07:30;;;;;;;10.07;9.02;;;;;;;;;;4983607;28;20196;-57
2021/07/25 09:10:10;;;;;;;9.88;8.52;;;;;;;;;;4986945;28;20253;-58
2021/07/25 09:12:35;;;;;;;9.18;8.27;;;;;;;;;;4984569;28;20194;-57
2021/07/25 09:15:03;;;;;;;9.38;8.45;;;;;;;;;;4982466;28;20287;-56
2021/07/25 09:17:29;;;;;;;8.93;8.13;;;;;;;;;;4989900;28;20195;-57
2021/07/25 09:20:13;;;;;;;10.40;8.80;;;;;;;;;;4986478;28;20211;-56
2021/07/25 09:22:39;;;;;;;9.43;8.52;;;;;;;;;;4983271;28;20188;-57
2021/07/25 09:25:05;;;;;;;11.18;8.88;;;;;;;;;;4988499;28;20216;-56
2021/07/25 09:27:30;;;;;;;10.65;9.52;;;;;;;;;;4989935;28;20680;-56
2021/07/25 09:29:55;;;;;;;10.70;9.60;;;;;;;;;;4986383;28;20665;-56
2021/07/25 09:32:21;;;;;;;13.50;9.80;;;;;;;;;;4988437;28;20192;-56
2021/07/25 09:34:49;;;;;;;10.88;9.27;;;;;;;;;;4988559;28;20195;-56
2021/07/25 09:37:16;;;;;;;10.57;9.48;;;;;;;;;;5004344;28;20235;-56
2021/07/25 09:39:43;;;;;;;11.02;9.70;;;;;;;;;;4987617;28;20184;-56
2021/07/25 09:42:08;;;;;;;11.00;9.90;;;;;;;;;;4989131;28;20254;-56
2021/07/25 09:45:03;;;;;;;12.57;10.50;;;;;;;;;;4983468;28;20247;-55
2021/07/25 09:47:30;;;;;;;15.20;10.85;;;;;;;;;;4971517;28;20207;-55
2021/07/25 09:49:56;;;;;;;11.90;9.98;;;;;;;;;;4987155;28;20188;-55
2021/07/25 09:52:34;;;;;;;13.75;9.98;;;;;;;;;;4988971;28;20588;-56
2021/07/25 09:55:01;;;;;;;14.18;9.77;;;;;;;;;;4988373;28;20716;-55
2021/07/25 09:57:26;;;;;;;11.30;9.80;;;;;;;;;;4988942;28;20225;-55
2021/07/25 09:59:56;;;;;;;10.93;8.90;;;;;;;;;;4989267;23;20611;-61
2021/07/25 10:02:32;;;;;;;10.05;8.82;;;;;;;;;;4966221;28;20649;-60
2021/07/25 10:05:11;;;;;;;9.88;8.77;;;;;;;;;;4955250;28;20208;-58
2021/07/25 10:07:36;;;;;;;10.82;9.32;;;;;;;;;;4958289;28;20270;-59
2021/07/25 10:10:02;;;;;;;9.45;8.43;;;;;;;;;;4967253;28;20320;-59
2021/07/25 10:12:32;;;;;;;9.38;8.40;;;;;;;;;;4969188;28;20184;-58
2021/07/25 10:14:59;;;;;;;9.73;8.73;;;;;;;;;;4974143;28;20251;-59
2021/07/25 10:17:25;;;;;;;9.27;8.32;;;;;;;;;;4973641;28;20208;-59
2021/07/25 10:19:51;;;;;;;11.15;8.95;;;;;;;;;;4967831;28;20822;-60
2021/07/25 10:22:16;;;;;;;11.52;9.38;;;;;;;;;;4967837;28;20180;-59
2021/07/25 10:24:45;;;;;;;11.30;8.70;;;;;;;;;;4969658;28;20280;-60
2021/07/25 10:27:14;;;;;;;10.30;9.20;;;;;;;;;;4967931;28;20188;-60
2021/07/25 10:29:40;;;;;;;12.35;8.25;;;;;;;;;;4967195;28;20216;-61
2021/07/25 10:32:06;;;;;;;10.27;9.27;;;;;;;;;;4977374;28;20656;-63
2021/07/25 10:34:33;;;;;;;11.85;8.63;;;;;;;;;;4973152;28;20196;-66
2021/07/25 10:36:59;;;;;;;13.15;10.10;;;;;;;;;;4970412;28;20204;-62
2021/07/25 10:39:26;;;;;;;11.50;9.18;;;;;;;;;;4969287;28;20677;-62
2021/07/25 10:41:53;;;;;;;10.60;9.50;;;;;;;;;;4969057;28;20216;-62
2021/07/25 10:44:19;;;;;;;11.57;9.05;;;;;;;;;;4976103;28;20291;-62
2021/07/25 10:46:44;;;;;;;11.27;9.25;;;;;;;;;;4970773;28;20220;-65
2021/07/25 10:49:13;;;;;;;11.40;10.07;;;;;;;;;;4970528;28;20207;-62
2021/07/25 10:51:58;;;;;;;12.05;9.38;;;;;;;;;;4968850;28;20209;-61
2021/07/25 10:54:23;;;;;;;10.15;9.10;;;;;;;;;;4965560;28;20207;-61
2021/07/25 10:57:00;;;;;;;12.52;8.88;;;;;;;;;;4965783;28;20750;-62
2021/07/25 10:59:44;;;;;;;11.68;9.93;;;;;;;;;;4956970;28;20219;-61
2021/07/25 11:02:22;;;;;;;10.10;9.10;;;;;;;;;;4973354;28;20177;-64
2021/07/25 11:04:47;;;;;;;12.32;9.25;;;;;;;;;;4971717;28;20215;-59
2021/07/25 11:07:39;;;;;;;10.13;9.07;;;;;;;;;;4972454;28;20220;-60
2021/07/25 11:10:13;;;;;;;10.50;9.40;;;;;;;;;;4960099;28;20227;-62
2021/07/25 11:12:48;;;;;;;11.75;8.88;;;;;;;;;;4963562;28;20677;-59
2021/07/25 11:15:28;;;;;;;9.82;8.90;;;;;;;;;;4969834;28;20195;-60
2021/07/25 11:17:54;;;;;;;10.10;8.90;;;;;;;;;;4970046;28;20334;-62
2021/07/25 11:20:32;;;;;;;9.85;8.77;;;;;;;;;;4969349;28;20344;-61
2021/07/25 11:22:58;;;;;;;11.15;9.68;;;;;;;;;;4966545;28;20185;-60
2021/07/25 11:25:32;;;;;;;12.00;9.93;;;;;;;;;;4966954;28;20195;-62
2021/07/25 11:27:57;;;;;;;11.10;10.00;;;;;;;;;;4965049;28;20188;-61
2021/07/25 11:30:41;;;;;;;14.30;9.80;;;;;;;;;;4966681;28;20216;-61
2021/07/25 11:33:06;;;;;;;10.32;9.40;;;;;;;;;;4966798;28;20189;-60
2021/07/25 11:35:32;;;;;;;10.37;9.47;;;;;;;;;;4967497;28;20267;-61
2021/07/25 11:37:58;;;;;;;9.93;8.93;;;;;;;;;;4968326;28;20677;-62
2021/07/25 11:40:24;;;;;;;13.15;10.75;;;;;;;;;;4968461;28;20557;-60
2021/07/25 11:42:50;;;;;;;11.63;10.52;;;;;;;;;;4964960;28;20196;-60
2021/07/25 11:45:15;;;;;;;10.35;9.45;;;;;;;;;;4978008;28;20263;-60
2021/07/25 11:47:40;;;;;;;10.83;9.80;;;;;;;;;;4969141;28;20323;-61
2021/07/25 11:50:06;;;;;;;11.63;9.67;;;;;;;;;;4971540;28;20204;-61
2021/07/25 11:52:31;;;;;;;11.32;9.77;;;;;;;;;;4960298;28;20286;-61
2021/07/25 11:54:56;;;;;;;10.80;9.87;;;;;;;;;;4968250;28;20188;-60
2021/07/25 11:57:24;;;;;;;10.40;9.50;;;;;;;;;;4971550;28;20210;-60
2021/07/25 11:59:51;;;;;;;9.25;8.35;;;;;;;;;;4977902;28;20449;-60
2021/07/25 12:02:24;;;;;;;9.75;8.85;;;;;;;;;;4967667;28;20274;-59
2021/07/25 12:04:49;;;;;;;10.18;9.18;;;;;;;;;;4968874;28;20860;-60
2021/07/25 12:07:15;;;;;;;10.05;8.68;;;;;;;;;;4952439;28;20195;-59
2021/07/25 12:09:51;;;;;;;9.68;8.70;;;;;;;;;;4965740;28;20224;-60
2021/07/25 12:12:16;;;;;;;9.45;8.43;;;;;;;;;;4970484;28;20182;-59
2021/07/25 12:14:42;;;;;;;9.30;8.40;;;;;;;;;;4971299;28;20568;-59
2021/07/25 12:17:08;;;;;;;8.98;8.15;;;;;;;;;;4951065;28;20206;-60
2021/07/25 12:19:34;;;;;;;9.93;7.60;;;;;;;;;;4969074;28;20197;-61
2021/07/25 12:22:04;;;;;;;9.02;8.13;;;;;;;;;;4966563;28;20189;-59
2021/07/25 12:24:36;;;;;;;8.63;7.40;;;;;;;;;;4966884;28;20192;-59
2021/07/25 12:27:03;;;;;;;7.50;6.80;;;;;;;;;;4965991;28;20186;-59
2021/07/25 12:29:38;;;;;;;8.32;7.40;;;;;;;;;;4974392;28;20316;-58
2021/07/25 12:32:39;;;;;;;8.52;7.65;;;;;;;;;;4961682;28;20184;-59
2021/07/25 12:35:13;;;;;;;7.70;6.93;;;;;;;;;;4920872;29;20194;-59
2021/07/25 12:37:49;;;;;;;8.63;6.95;;;;;;;;;;4959948;28;20210;-58
2021/07/25 12:40:16;;;;;;;10.57;7.63;;;;;;;;;;4979721;28;20215;-59
2021/07/25 12:42:41;;;;;;;9.38;7.88;;;;;;;;;;4970131;28;20251;-59
2021/07/25 12:45:28;;;;;;;9.33;7.87;;;;;;;;;;4973446;28;20196;-58
2021/07/25 12:48:12;;;;;;;7.70;6.93;;;;;;;;;;4972841;28;20434;-59
2021/07/25 12:50:57;;;;;;;7.57;6.72;;;;;;;;;;4969629;28;20391;-59
2021/07/25 12:53:32;;;;;;;6.55;5.95;;;;;;;;;;4969267;28;20188;-58
2021/07/25 12:55:59;;;;;;;11.80;6.28;;;;;;;;;;4967025;28;20855;-58
2021/07/25 12:58:27;;;;;;;7.07;6.03;;;;;;;;;;4969193;28;20223;-59
2021/07/25 13:06:05;;;;;;;6.85;5.90;;;;;;;;;;4973089;28;20192;-58
2021/07/25 13:08:30;;;;;;;6.93;6.23;;;;;;;;;;4970776;28;20189;-58
2021/07/25 13:10:55;;;;;;;7.80;7.00;;;;;;;;;;4955468;28;20586;-58
2021/07/25 13:13:20;;;;;;;8.48;6.80;;;;;;;;;;4969433;28;20181;-57
2021/07/25 13:15:45;;;;;;;6.97;6.17;;;;;;;;;;4969672;28;20208;-58
2021/07/25 13:18:11;;;;;;;9.97;7.07;;;;;;;;;;4958299;28;20602;-57
2021/07/25 13:20:36;;;;;;;7.03;6.33;;;;;;;;;;4970053;28;20475;-60
2021/07/25 13:23:01;;;;;;;9.33;7.30;;;;;;;;;;4968488;28;20424;-59
2021/07/25 13:25:26;;;;;;;8.50;6.90;;;;;;;;;;4955545;28;20467;-59
2021/07/25 13:27:51;;;;;;;7.50;6.47;;;;;;;;;;4970266;28;20223;-58
2021/07/25 13:30:17;;;;;;;9.63;7.17;;;;;;;;;;4969562;28;20684;-57
2021/07/25 13:32:42;;;;;;;8.07;6.75;;;;;;;;;;4971108;28;20447;-58
2021/07/25 13:35:07;;;;;;;10.80;7.57;;;;;;;;;;4962356;28;20189;-56
2021/07/25 13:37:32;;;;;;;9.07;6.90;;;;;;;;;;4968267;28;20200;-58
2021/07/25 13:39:58;;;;;;;9.33;7.07;;;;;;;;;;4968884;28;20725;-59
2021/07/25 13:42:23;;;;;;;7.97;6.80;;;;;;;;;;4951519;28;20443;-58
2021/07/25 13:44:51;;;;;;;10.70;7.15;;;;;;;;;;4966419;28;20181;-58
2021/07/25 13:47:16;;;;;;;7.20;6.50;;;;;;;;;;4949224;28;20190;-55
2021/07/25 13:49:41;;;;;;;6.47;5.88;;;;;;;;;;4956161;28;20653;-57
2021/07/25 13:52:06;;;;;;;8.70;7.20;;;;;;;;;;4967722;28;20185;-56
2021/07/25 13:54:32;;;;;;;8.07;7.10;;;;;;;;;;4969816;28;20222;-55
2021/07/25 13:56:57;;;;;;;7.77;6.97;;;;;;;;;;4969817;28;20205;-55
2021/07/25 13:59:22;;;;;;;9.40;7.00;;;;;;;;;;4968122;28;20463;-57
2021/07/25 14:01:47;;;;;;;7.63;6.57;;;;;;;;;;4953271;28;20435;-55
2021/07/25 14:04:12;;;;;;;9.45;7.20;;;;;;;;;;4969634;28;20435;-56
2021/07/25 14:06:38;;;;;;;7.20;6.53;;;;;;;;;;4977315;28;20180;-56
2021/07/25 14:09:03;;;;;;;9.88;6.93;;;;;;;;;;4971826;28;20534;-56
2021/07/25 14:11:28;;;;;;;9.68;6.78;;;;;;;;;;4968713;28;20184;-55
2021/07/25 14:13:53;;;;;;;8.63;6.57;;;;;;;;;;4969424;28;20188;-56
2021/07/25 14:16:26;;;;;;;9.30;6.93;;;;;;;;;;4979998;28;20512;-56
2021/07/25 14:18:51;;;;;;;7.47;6.63;;;;;;;;;;4972325;28;20550;-59
2021/07/25 14:21:16;;;;;;;7.93;6.22;;;;;;;;;;4966155;28;20349;-56
2021/07/25 14:23:42;;;;;;;9.43;6.63;;;;;;;;;;4968396;28;20183;-57
2021/07/25 14:26:08;;;;;;;7.33;6.63;;;;;;;;;;4968300;28;20177;-58
2021/07/25 14:28:33;;;;;;;7.80;7.10;;;;;;;;;;4967561;28;20432;-57
2021/07/25 14:30:58;;;;;;;7.80;6.60;;;;;;;;;;4966707;28;20220;-59
2021/07/25 14:33:23;;;;;;;7.78;7.07;;;;;;;;;;4953244;28;20442;-58
2021/07/25 14:35:48;;;;;;;7.10;6.38;;;;;;;;;;4967971;28;20712;-57